sensor_id;sensor_type;location;lat;lon;timestamp;P1;durP1;ratioP1;P2;durP2;ratioP2
75167;SDS011;63748;48.088;11.476;2023-04-06T00:01:06;4.45;;;2.92;;
75167;SDS011;63748;48.088;11.476;2023-04-06T00:03:33;2.88;;;2.58;;
75167;SDS011;63748;48.088;11.476;2023-04-06T00:05:59;3.70;;;2.55;;
75167;SDS011;63748;48.088;11.476;2023-04-06T00:08:25;5.78;;;2.85;;
75167;SDS011;63748;48.088;11.476;2023-04-06T00:10:52;4.47;;;2.83;;
75167;SDS011;63748;48.088;11.476;2023-04-06T00:13:18;3.22;;;2.05;;
75167;SDS011;63748;48.088;11.476;2023-04-06T00:15:44;6.50;;;2.53;;
75167;SDS011;63748;48.088;11.476;2023-04-06T00:18:10;3.83;;;2.22;;
75167;SDS011;63748;48.088;11.476;2023-04-06T00:20:36;4.47;;;2.63;;
75167;SDS011;63748;48.088;11.476;2023-04-06T00:23:02;4.28;;;2.80;;
75167;SDS011;63748;48.088;11.476;2023-04-06T00:25:29;2.92;;;2.42;;
75167;SDS011;63748;48.088;11.476;2023-04-06T00:27:55;5.88;;;2.50;;
75167;SDS011;63748;48.088;11.476;2023-04-06T00:30:21;4.07;;;2.30;;
75167;SDS011;63748;48.088;11.476;2023-04-06T00:32:47;3.90;;;2.45;;
75167;SDS011;63748;48.088;11.476;2023-04-06T00:35:13;4.03;;;2.70;;
75167;SDS011;63748;48.088;11.476;2023-04-06T00:37:40;3.47;;;2.50;;
75167;SDS011;63748;48.088;11.476;2023-04-06T00:40:06;5.20;;;2.75;;
75167;SDS011;63748;48.088;11.476;2023-04-06T00:42:33;4.22;;;2.50;;
75167;SDS011;63748;48.088;11.476;2023-04-06T00:44:59;4.10;;;2.67;;
75167;SDS011;63748;48.088;11.476;2023-04-06T00:47:26;4.03;;;2.38;;
75167;SDS011;63748;48.088;11.476;2023-04-06T00:49:55;4.28;;;2.72;;
75167;SDS011;63748;48.088;11.476;2023-04-06T00:52:21;5.68;;;2.67;;
75167;SDS011;63748;48.088;11.476;2023-04-06T00:54:48;4.80;;;2.75;;
75167;SDS011;63748;48.088;11.476;2023-04-06T00:57:14;3.75;;;2.38;;
75167;SDS011;63748;48.088;11.476;2023-04-06T00:59:40;4.78;;;2.72;;
75167;SDS011;63748;48.088;11.476;2023-04-06T01:02:07;4.78;;;2.33;;
75167;SDS011;63748;48.088;11.476;2023-04-06T01:04:33;3.25;;;2.30;;
75167;SDS011;63748;48.088;11.476;2023-04-06T01:07:00;3.55;;;2.30;;
75167;SDS011;63748;48.088;11.476;2023-04-06T01:09:29;3.50;;;2.47;;
75167;SDS011;63748;48.088;11.476;2023-04-06T01:11:56;4.82;;;2.75;;
75167;SDS011;63748;48.088;11.476;2023-04-06T01:14:22;4.10;;;2.30;;
75167;SDS011;63748;48.088;11.476;2023-04-06T01:16:48;5.15;;;2.58;;
75167;SDS011;63748;48.088;11.476;2023-04-06T01:19:15;8.40;;;2.53;;
75167;SDS011;63748;48.088;11.476;2023-04-06T01:21:41;2.53;;;2.05;;
75167;SDS011;63748;48.088;11.476;2023-04-06T01:24:07;4.50;;;2.20;;
75167;SDS011;63748;48.088;11.476;2023-04-06T01:26:34;6.47;;;2.58;;
75167;SDS011;63748;48.088;11.476;2023-04-06T01:29:01;3.35;;;2.40;;
75167;SDS011;63748;48.088;11.476;2023-04-06T01:31:28;2.55;;;1.88;;
75167;SDS011;63748;48.088;11.476;2023-04-06T01:33:54;3.67;;;2.25;;
75167;SDS011;63748;48.088;11.476;2023-04-06T01:36:21;5.18;;;3.25;;
75167;SDS011;63748;48.088;11.476;2023-04-06T01:38:47;5.60;;;3.47;;
75167;SDS011;63748;48.088;11.476;2023-04-06T01:41:13;7.50;;;4.13;;
75167;SDS011;63748;48.088;11.476;2023-04-06T01:43:39;6.53;;;3.85;;
75167;SDS011;63748;48.088;11.476;2023-04-06T01:46:05;4.60;;;3.00;;
75167;SDS011;63748;48.088;11.476;2023-04-06T01:48:31;4.18;;;2.35;;
75167;SDS011;63748;48.088;11.476;2023-04-06T01:50:57;6.07;;;3.22;;
75167;SDS011;63748;48.088;11.476;2023-04-06T01:53:23;5.38;;;2.83;;
75167;SDS011;63748;48.088;11.476;2023-04-06T01:55:49;4.18;;;2.88;;
75167;SDS011;63748;48.088;11.476;2023-04-06T01:58:15;5.22;;;3.22;;
75167;SDS011;63748;48.088;11.476;2023-04-06T02:00:42;6.05;;;3.03;;
75167;SDS011;63748;48.088;11.476;2023-04-06T02:03:08;4.95;;;3.30;;
75167;SDS011;63748;48.088;11.476;2023-04-06T02:05:34;4.97;;;3.70;;
75167;SDS011;63748;48.088;11.476;2023-04-06T02:08:06;4.25;;;2.80;;
75167;SDS011;63748;48.088;11.476;2023-04-06T02:10:33;9.02;;;4.05;;
75167;SDS011;63748;48.088;11.476;2023-04-06T02:12:59;4.10;;;3.08;;
75167;SDS011;63748;48.088;11.476;2023-04-06T02:15:26;6.10;;;3.85;;
75167;SDS011;63748;48.088;11.476;2023-04-06T02:17:52;7.13;;;3.22;;
75167;SDS011;63748;48.088;11.476;2023-04-06T02:20:18;5.07;;;3.03;;
75167;SDS011;63748;48.088;11.476;2023-04-06T02:22:45;6.45;;;4.05;;
75167;SDS011;63748;48.088;11.476;2023-04-06T02:25:11;5.38;;;3.22;;
75167;SDS011;63748;48.088;11.476;2023-04-06T02:27:37;4.07;;;3.08;;
75167;SDS011;63748;48.088;11.476;2023-04-06T02:30:03;4.93;;;3.13;;
75167;SDS011;63748;48.088;11.476;2023-04-06T02:32:29;4.28;;;2.95;;
75167;SDS011;63748;48.088;11.476;2023-04-06T02:34:55;5.78;;;3.00;;
75167;SDS011;63748;48.088;11.476;2023-04-06T02:37:22;4.65;;;3.13;;
75167;SDS011;63748;48.088;11.476;2023-04-06T02:39:49;7.20;;;3.55;;
75167;SDS011;63748;48.088;11.476;2023-04-06T02:42:15;4.53;;;2.75;;
75167;SDS011;63748;48.088;11.476;2023-04-06T02:44:42;4.53;;;3.05;;
75167;SDS011;63748;48.088;11.476;2023-04-06T02:47:08;5.95;;;3.47;;
75167;SDS011;63748;48.088;11.476;2023-04-06T02:49:34;4.40;;;2.53;;
75167;SDS011;63748;48.088;11.476;2023-04-06T02:52:00;6.43;;;3.63;;
75167;SDS011;63748;48.088;11.476;2023-04-06T02:54:26;9.15;;;3.28;;
75167;SDS011;63748;48.088;11.476;2023-04-06T02:56:53;7.97;;;3.08;;
75167;SDS011;63748;48.088;11.476;2023-04-06T02:59:19;9.00;;;3.40;;
75167;SDS011;63748;48.088;11.476;2023-04-06T03:01:45;7.40;;;3.17;;
75167;SDS011;63748;48.088;11.476;2023-04-06T03:04:11;6.50;;;3.53;;
75167;SDS011;63748;48.088;11.476;2023-04-06T03:06:37;5.75;;;3.25;;
75167;SDS011;63748;48.088;11.476;2023-04-06T03:09:03;6.75;;;3.55;;
75167;SDS011;63748;48.088;11.476;2023-04-06T03:11:29;4.53;;;3.20;;
75167;SDS011;63748;48.088;11.476;2023-04-06T03:13:55;4.57;;;3.35;;
75167;SDS011;63748;48.088;11.476;2023-04-06T03:16:21;7.53;;;3.28;;
75167;SDS011;63748;48.088;11.476;2023-04-06T03:18:47;6.05;;;3.72;;
75167;SDS011;63748;48.088;11.476;2023-04-06T03:21:13;6.43;;;3.33;;
75167;SDS011;63748;48.088;11.476;2023-04-06T03:23:44;4.90;;;3.35;;
75167;SDS011;63748;48.088;11.476;2023-04-06T03:26:10;4.93;;;2.95;;
75167;SDS011;63748;48.088;11.476;2023-04-06T03:28:36;5.40;;;3.33;;
75167;SDS011;63748;48.088;11.476;2023-04-06T03:31:02;5.45;;;3.08;;
75167;SDS011;63748;48.088;11.476;2023-04-06T03:33:28;4.28;;;2.75;;
75167;SDS011;63748;48.088;11.476;2023-04-06T03:35:55;5.10;;;3.25;;
75167;SDS011;63748;48.088;11.476;2023-04-06T03:38:21;6.38;;;4.40;;
75167;SDS011;63748;48.088;11.476;2023-04-06T03:40:48;6.95;;;3.13;;
75167;SDS011;63748;48.088;11.476;2023-04-06T03:43:14;5.97;;;3.33;;
75167;SDS011;63748;48.088;11.476;2023-04-06T03:45:40;6.60;;;3.75;;
75167;SDS011;63748;48.088;11.476;2023-04-06T03:48:06;6.55;;;3.72;;
75167;SDS011;63748;48.088;11.476;2023-04-06T03:50:32;5.40;;;3.05;;
75167;SDS011;63748;48.088;11.476;2023-04-06T03:52:59;9.48;;;4.13;;
75167;SDS011;63748;48.088;11.476;2023-04-06T03:57:53;4.63;;;3.25;;
75167;SDS011;63748;48.088;11.476;2023-04-06T04:00:20;8.27;;;3.75;;
75167;SDS011;63748;48.088;11.476;2023-04-06T04:02:46;7.35;;;3.70;;
75167;SDS011;63748;48.088;11.476;2023-04-06T04:05:12;6.50;;;3.33;;
75167;SDS011;63748;48.088;11.476;2023-04-06T04:07:38;6.22;;;3.30;;
75167;SDS011;63748;48.088;11.476;2023-04-06T04:10:04;5.38;;;2.75;;
75167;SDS011;63748;48.088;11.476;2023-04-06T04:12:30;5.90;;;4.13;;
75167;SDS011;63748;48.088;11.476;2023-04-06T04:14:56;5.50;;;3.35;;
75167;SDS011;63748;48.088;11.476;2023-04-06T04:17:22;5.68;;;3.90;;
75167;SDS011;63748;48.088;11.476;2023-04-06T04:19:48;5.20;;;3.55;;
75167;SDS011;63748;48.088;11.476;2023-04-06T04:22:14;5.53;;;3.42;;
75167;SDS011;63748;48.088;11.476;2023-04-06T04:24:40;5.03;;;3.05;;
75167;SDS011;63748;48.088;11.476;2023-04-06T04:27:06;5.75;;;3.50;;
75167;SDS011;63748;48.088;11.476;2023-04-06T04:29:32;6.55;;;3.33;;
75167;SDS011;63748;48.088;11.476;2023-04-06T04:31:58;8.35;;;3.45;;
75167;SDS011;63748;48.088;11.476;2023-04-06T04:34:25;5.20;;;3.75;;
75167;SDS011;63748;48.088;11.476;2023-04-06T04:36:51;6.22;;;3.75;;
75167;SDS011;63748;48.088;11.476;2023-04-06T04:39:17;4.43;;;3.30;;
75167;SDS011;63748;48.088;11.476;2023-04-06T04:41:43;6.75;;;3.85;;
75167;SDS011;63748;48.088;11.476;2023-04-06T04:44:10;5.57;;;3.47;;
75167;SDS011;63748;48.088;11.476;2023-04-06T04:46:36;6.97;;;3.67;;
75167;SDS011;63748;48.088;11.476;2023-04-06T04:49:02;3.97;;;3.28;;
75167;SDS011;63748;48.088;11.476;2023-04-06T04:51:28;6.15;;;3.92;;
75167;SDS011;63748;48.088;11.476;2023-04-06T04:53:55;5.60;;;4.20;;
75167;SDS011;63748;48.088;11.476;2023-04-06T04:56:21;8.02;;;4.22;;
75167;SDS011;63748;48.088;11.476;2023-04-06T04:58:47;8.07;;;3.83;;
75167;SDS011;63748;48.088;11.476;2023-04-06T05:01:13;4.95;;;3.42;;
75167;SDS011;63748;48.088;11.476;2023-04-06T05:03:40;4.57;;;2.97;;
75167;SDS011;63748;48.088;11.476;2023-04-06T05:06:06;6.97;;;3.80;;
75167;SDS011;63748;48.088;11.476;2023-04-06T05:08:33;4.28;;;3.03;;
75167;SDS011;63748;48.088;11.476;2023-04-06T05:10:59;6.53;;;3.60;;
75167;SDS011;63748;48.088;11.476;2023-04-06T05:13:25;7.85;;;3.30;;
75167;SDS011;63748;48.088;11.476;2023-04-06T05:15:51;6.25;;;3.95;;
75167;SDS011;63748;48.088;11.476;2023-04-06T05:18:17;5.93;;;3.95;;
75167;SDS011;63748;48.088;11.476;2023-04-06T05:20:43;4.30;;;3.60;;
75167;SDS011;63748;48.088;11.476;2023-04-06T05:23:10;6.50;;;4.13;;
75167;SDS011;63748;48.088;11.476;2023-04-06T05:25:36;4.88;;;3.47;;
75167;SDS011;63748;48.088;11.476;2023-04-06T05:28:02;6.88;;;3.70;;
75167;SDS011;63748;48.088;11.476;2023-04-06T05:30:28;4.50;;;3.30;;
75167;SDS011;63748;48.088;11.476;2023-04-06T05:32:54;5.70;;;3.30;;
75167;SDS011;63748;48.088;11.476;2023-04-06T05:35:20;6.65;;;2.80;;
75167;SDS011;63748;48.088;11.476;2023-04-06T05:37:46;5.50;;;3.55;;
75167;SDS011;63748;48.088;11.476;2023-04-06T05:40:12;7.68;;;3.90;;
75167;SDS011;63748;48.088;11.476;2023-04-06T05:42:39;3.58;;;2.83;;
75167;SDS011;63748;48.088;11.476;2023-04-06T05:45:06;5.80;;;3.45;;
75167;SDS011;63748;48.088;11.476;2023-04-06T05:47:32;5.93;;;3.80;;
75167;SDS011;63748;48.088;11.476;2023-04-06T05:49:58;4.57;;;3.15;;
75167;SDS011;63748;48.088;11.476;2023-04-06T05:52:24;3.95;;;3.38;;
75167;SDS011;63748;48.088;11.476;2023-04-06T05:54:50;4.70;;;2.88;;
75167;SDS011;63748;48.088;11.476;2023-04-06T05:57:16;5.70;;;3.95;;
75167;SDS011;63748;48.088;11.476;2023-04-06T05:59:43;5.63;;;3.33;;
75167;SDS011;63748;48.088;11.476;2023-04-06T06:02:09;8.38;;;3.40;;
75167;SDS011;63748;48.088;11.476;2023-04-06T06:04:35;7.13;;;3.60;;
75167;SDS011;63748;48.088;11.476;2023-04-06T06:07:01;5.93;;;2.95;;
75167;SDS011;63748;48.088;11.476;2023-04-06T06:09:27;7.97;;;3.40;;
75167;SDS011;63748;48.088;11.476;2023-04-06T06:11:53;5.55;;;3.35;;
75167;SDS011;63748;48.088;11.476;2023-04-06T06:14:19;5.68;;;3.78;;
75167;SDS011;63748;48.088;11.476;2023-04-06T06:16:46;5.32;;;3.60;;
75167;SDS011;63748;48.088;11.476;2023-04-06T06:19:13;5.75;;;3.38;;
75167;SDS011;63748;48.088;11.476;2023-04-06T06:21:39;6.75;;;4.15;;
75167;SDS011;63748;48.088;11.476;2023-04-06T06:24:05;6.25;;;4.25;;
75167;SDS011;63748;48.088;11.476;2023-04-06T06:26:31;4.72;;;3.28;;
75167;SDS011;63748;48.088;11.476;2023-04-06T06:28:57;5.30;;;3.30;;
75167;SDS011;63748;48.088;11.476;2023-04-06T06:31:24;4.55;;;2.80;;
75167;SDS011;63748;48.088;11.476;2023-04-06T06:33:50;4.22;;;2.95;;
75167;SDS011;63748;48.088;11.476;2023-04-06T06:36:19;5.38;;;3.72;;
75167;SDS011;63748;48.088;11.476;2023-04-06T06:38:45;4.13;;;3.17;;
75167;SDS011;63748;48.088;11.476;2023-04-06T06:41:11;4.38;;;2.80;;
75167;SDS011;63748;48.088;11.476;2023-04-06T06:43:37;4.72;;;2.85;;
75167;SDS011;63748;48.088;11.476;2023-04-06T06:46:03;5.00;;;3.25;;
75167;SDS011;63748;48.088;11.476;2023-04-06T06:48:30;5.00;;;2.97;;
75167;SDS011;63748;48.088;11.476;2023-04-06T06:50:56;5.55;;;3.75;;
75167;SDS011;63748;48.088;11.476;2023-04-06T06:53:22;4.18;;;2.90;;
75167;SDS011;63748;48.088;11.476;2023-04-06T06:55:49;5.85;;;3.25;;
75167;SDS011;63748;48.088;11.476;2023-04-06T06:58:15;6.38;;;3.53;;
75167;SDS011;63748;48.088;11.476;2023-04-06T07:00:41;6.50;;;3.20;;
75167;SDS011;63748;48.088;11.476;2023-04-06T07:03:07;5.10;;;3.35;;
75167;SDS011;63748;48.088;11.476;2023-04-06T07:05:33;7.13;;;3.10;;
75167;SDS011;63748;48.088;11.476;2023-04-06T07:07:59;6.13;;;3.45;;
75167;SDS011;63748;48.088;11.476;2023-04-06T07:10:25;5.57;;;3.47;;
75167;SDS011;63748;48.088;11.476;2023-04-06T07:12:52;5.70;;;3.83;;
75167;SDS011;63748;48.088;11.476;2023-04-06T07:15:18;5.43;;;3.67;;
75167;SDS011;63748;48.088;11.476;2023-04-06T07:17:44;4.47;;;3.53;;
75167;SDS011;63748;48.088;11.476;2023-04-06T07:20:11;5.13;;;3.78;;
75167;SDS011;63748;48.088;11.476;2023-04-06T07:22:42;6.57;;;3.95;;
75167;SDS011;63748;48.088;11.476;2023-04-06T07:25:09;6.57;;;3.90;;
75167;SDS011;63748;48.088;11.476;2023-04-06T07:27:35;8.18;;;3.63;;
75167;SDS011;63748;48.088;11.476;2023-04-06T07:30:01;5.55;;;3.40;;
75167;SDS011;63748;48.088;11.476;2023-04-06T07:32:27;5.75;;;3.67;;
75167;SDS011;63748;48.088;11.476;2023-04-06T07:34:55;6.15;;;3.35;;
75167;SDS011;63748;48.088;11.476;2023-04-06T07:37:23;6.28;;;3.92;;
75167;SDS011;63748;48.088;11.476;2023-04-06T07:39:49;7.15;;;4.35;;
75167;SDS011;63748;48.088;11.476;2023-04-06T07:42:15;5.25;;;2.97;;
75167;SDS011;63748;48.088;11.476;2023-04-06T07:44:41;5.20;;;3.05;;
75167;SDS011;63748;48.088;11.476;2023-04-06T07:47:07;6.90;;;3.83;;
75167;SDS011;63748;48.088;11.476;2023-04-06T07:49:33;6.40;;;4.18;;
75167;SDS011;63748;48.088;11.476;2023-04-06T07:51:59;7.13;;;4.45;;
75167;SDS011;63748;48.088;11.476;2023-04-06T07:54:27;7.72;;;4.55;;
75167;SDS011;63748;48.088;11.476;2023-04-06T07:56:53;7.68;;;4.07;;
75167;SDS011;63748;48.088;11.476;2023-04-06T07:59:20;7.60;;;3.92;;
75167;SDS011;63748;48.088;11.476;2023-04-06T08:01:46;6.35;;;4.45;;
75167;SDS011;63748;48.088;11.476;2023-04-06T08:04:12;8.45;;;4.32;;
75167;SDS011;63748;48.088;11.476;2023-04-06T08:06:38;6.40;;;3.65;;
75167;SDS011;63748;48.088;11.476;2023-04-06T08:09:05;6.68;;;4.35;;
75167;SDS011;63748;48.088;11.476;2023-04-06T08:11:32;6.38;;;3.78;;
75167;SDS011;63748;48.088;11.476;2023-04-06T08:13:58;10.57;;;5.43;;
75167;SDS011;63748;48.088;11.476;2023-04-06T08:16:24;7.10;;;4.25;;
75167;SDS011;63748;48.088;11.476;2023-04-06T08:18:50;8.88;;;4.50;;
75167;SDS011;63748;48.088;11.476;2023-04-06T08:21:16;9.77;;;4.43;;
75167;SDS011;63748;48.088;11.476;2023-04-06T08:23:42;7.95;;;4.47;;
75167;SDS011;63748;48.088;11.476;2023-04-06T08:26:08;8.30;;;4.45;;
75167;SDS011;63748;48.088;11.476;2023-04-06T08:28:35;7.75;;;4.70;;
75167;SDS011;63748;48.088;11.476;2023-04-06T08:31:04;5.32;;;4.05;;
75167;SDS011;63748;48.088;11.476;2023-04-06T08:33:31;7.93;;;4.28;;
75167;SDS011;63748;48.088;11.476;2023-04-06T08:36:05;8.45;;;5.18;;
75167;SDS011;63748;48.088;11.476;2023-04-06T08:38:31;8.15;;;4.38;;
75167;SDS011;63748;48.088;11.476;2023-04-06T08:40:58;7.10;;;4.43;;
75167;SDS011;63748;48.088;11.476;2023-04-06T08:43:24;7.22;;;4.28;;
75167;SDS011;63748;48.088;11.476;2023-04-06T08:45:51;6.30;;;4.47;;
75167;SDS011;63748;48.088;11.476;2023-04-06T08:48:17;6.57;;;4.05;;
75167;SDS011;63748;48.088;11.476;2023-04-06T08:50:44;8.13;;;4.78;;
75167;SDS011;63748;48.088;11.476;2023-04-06T08:53:10;5.88;;;4.35;;
75167;SDS011;63748;48.088;11.476;2023-04-06T08:55:36;6.43;;;4.25;;
75167;SDS011;63748;48.088;11.476;2023-04-06T08:58:03;6.40;;;4.75;;
75167;SDS011;63748;48.088;11.476;2023-04-06T09:00:33;7.75;;;4.43;;
75167;SDS011;63748;48.088;11.476;2023-04-06T09:02:59;6.47;;;4.65;;
75167;SDS011;63748;48.088;11.476;2023-04-06T09:05:25;8.48;;;4.18;;
75167;SDS011;63748;48.088;11.476;2023-04-06T09:07:52;6.07;;;4.15;;
75167;SDS011;63748;48.088;11.476;2023-04-06T09:10:18;7.28;;;4.63;;
75167;SDS011;63748;48.088;11.476;2023-04-06T09:12:45;6.35;;;4.72;;
75167;SDS011;63748;48.088;11.476;2023-04-06T09:15:18;7.72;;;4.30;;
75167;SDS011;63748;48.088;11.476;2023-04-06T09:17:45;6.45;;;4.95;;
75167;SDS011;63748;48.088;11.476;2023-04-06T09:20:11;7.88;;;4.68;;
75167;SDS011;63748;48.088;11.476;2023-04-06T09:22:38;6.32;;;4.30;;
75167;SDS011;63748;48.088;11.476;2023-04-06T09:25:04;6.85;;;4.97;;
75167;SDS011;63748;48.088;11.476;2023-04-06T09:27:35;5.90;;;4.60;;
75167;SDS011;63748;48.088;11.476;2023-04-06T09:30:10;7.03;;;3.65;;
75167;SDS011;63748;48.088;11.476;2023-04-06T09:32:48;8.85;;;4.78;;
75167;SDS011;63748;48.088;11.476;2023-04-06T09:35:14;7.85;;;5.10;;
75167;SDS011;63748;48.088;11.476;2023-04-06T09:37:41;7.57;;;4.53;;
75167;SDS011;63748;48.088;11.476;2023-04-06T09:40:08;7.93;;;4.80;;
75167;SDS011;63748;48.088;11.476;2023-04-06T09:42:34;5.80;;;3.75;;
75167;SDS011;63748;48.088;11.476;2023-04-06T09:45:01;10.57;;;5.35;;
75167;SDS011;63748;48.088;11.476;2023-04-06T09:47:28;7.40;;;4.60;;
75167;SDS011;63748;48.088;11.476;2023-04-06T09:49:55;8.05;;;5.68;;
75167;SDS011;63748;48.088;11.476;2023-04-06T09:52:24;6.05;;;4.70;;
75167;SDS011;63748;48.088;11.476;2023-04-06T09:54:52;8.88;;;5.20;;
75167;SDS011;63748;48.088;11.476;2023-04-06T10:02:39;7.50;;;4.85;;
75167;SDS011;63748;48.088;11.476;2023-04-06T10:05:13;6.40;;;4.32;;
75167;SDS011;63748;48.088;11.476;2023-04-06T10:07:40;9.98;;;5.22;;
75167;SDS011;63748;48.088;11.476;2023-04-06T10:10:07;6.50;;;5.18;;
75167;SDS011;63748;48.088;11.476;2023-04-06T10:12:34;11.55;;;5.53;;
75167;SDS011;63748;48.088;11.476;2023-04-06T10:15:00;6.90;;;5.03;;
75167;SDS011;63748;48.088;11.476;2023-04-06T10:17:26;7.00;;;4.55;;
75167;SDS011;63748;48.088;11.476;2023-04-06T10:19:53;8.95;;;5.05;;
75167;SDS011;63748;48.088;11.476;2023-04-06T10:23:04;6.97;;;5.05;;
75167;SDS011;63748;48.088;11.476;2023-04-06T10:25:09;7.22;;;4.75;;
75167;SDS011;63748;48.088;11.476;2023-04-06T10:27:35;9.63;;;5.90;;
75167;SDS011;63748;48.088;11.476;2023-04-06T10:30:05;7.63;;;4.88;;
75167;SDS011;63748;48.088;11.476;2023-04-06T10:32:35;8.68;;;5.43;;
75167;SDS011;63748;48.088;11.476;2023-04-06T10:35:05;8.20;;;5.63;;
75167;SDS011;63748;48.088;11.476;2023-04-06T10:37:45;6.70;;;5.22;;
75167;SDS011;63748;48.088;11.476;2023-04-06T10:40:44;8.02;;;4.80;;
75167;SDS011;63748;48.088;11.476;2023-04-06T10:43:07;6.53;;;4.63;;
75167;SDS011;63748;48.088;11.476;2023-04-06T10:45:34;7.60;;;4.82;;
75167;SDS011;63748;48.088;11.476;2023-04-06T10:48:00;8.02;;;5.35;;
75167;SDS011;63748;48.088;11.476;2023-04-06T10:50:26;7.35;;;4.95;;
75167;SDS011;63748;48.088;11.476;2023-04-06T10:52:58;7.55;;;5.28;;
75167;SDS011;63748;48.088;11.476;2023-04-06T10:55:25;7.20;;;5.03;;
75167;SDS011;63748;48.088;11.476;2023-04-06T10:57:52;7.03;;;4.65;;
75167;SDS011;63748;48.088;11.476;2023-04-06T11:00:18;11.45;;;5.38;;
75167;SDS011;63748;48.088;11.476;2023-04-06T11:02:45;8.82;;;5.10;;
75167;SDS011;63748;48.088;11.476;2023-04-06T11:05:12;7.45;;;5.38;;
75167;SDS011;63748;48.088;11.476;2023-04-06T11:07:39;6.45;;;4.30;;
75167;SDS011;63748;48.088;11.476;2023-04-06T11:10:05;5.90;;;3.35;;
75167;SDS011;63748;48.088;11.476;2023-04-06T11:12:32;4.60;;;3.08;;
75167;SDS011;63748;48.088;11.476;2023-04-06T11:14:58;5.07;;;2.60;;
75167;SDS011;63748;48.088;11.476;2023-04-06T11:17:32;6.32;;;4.20;;
75167;SDS011;63748;48.088;11.476;2023-04-06T11:19:59;7.13;;;4.20;;
75167;SDS011;63748;48.088;11.476;2023-04-06T11:22:25;3.85;;;3.42;;
75167;SDS011;63748;48.088;11.476;2023-04-06T11:24:52;6.30;;;4.32;;
75167;SDS011;63748;48.088;11.476;2023-04-06T11:27:19;5.00;;;2.92;;
75167;SDS011;63748;48.088;11.476;2023-04-06T11:29:45;5.22;;;3.30;;
75167;SDS011;63748;48.088;11.476;2023-04-06T11:32:19;4.68;;;3.33;;
75167;SDS011;63748;48.088;11.476;2023-04-06T11:34:45;4.97;;;3.22;;
75167;SDS011;63748;48.088;11.476;2023-04-06T11:37:12;5.85;;;3.85;;
75167;SDS011;63748;48.088;11.476;2023-04-06T11:39:39;5.90;;;3.97;;
75167;SDS011;63748;48.088;11.476;2023-04-06T11:42:05;5.93;;;3.78;;
75167;SDS011;63748;48.088;11.476;2023-04-06T11:44:35;6.35;;;4.00;;
75167;SDS011;63748;48.088;11.476;2023-04-06T11:47:04;7.60;;;4.97;;
75167;SDS011;63748;48.088;11.476;2023-04-06T11:49:31;7.18;;;4.95;;
75167;SDS011;63748;48.088;11.476;2023-04-06T11:51:58;7.85;;;5.22;;
75167;SDS011;63748;48.088;11.476;2023-04-06T11:54:35;7.32;;;4.70;;
75167;SDS011;63748;48.088;11.476;2023-04-06T11:57:02;7.60;;;4.97;;
75167;SDS011;63748;48.088;11.476;2023-04-06T11:59:29;7.25;;;4.90;;
75167;SDS011;63748;48.088;11.476;2023-04-06T12:01:56;5.97;;;4.45;;
75167;SDS011;63748;48.088;11.476;2023-04-06T12:04:22;6.28;;;4.40;;
75167;SDS011;63748;48.088;11.476;2023-04-06T12:06:48;6.18;;;4.10;;
75167;SDS011;63748;48.088;11.476;2023-04-06T12:09:15;7.25;;;4.63;;
75167;SDS011;63748;48.088;11.476;2023-04-06T12:11:42;6.20;;;4.80;;
75167;SDS011;63748;48.088;11.476;2023-04-06T12:14:08;6.43;;;4.57;;
75167;SDS011;63748;48.088;11.476;2023-04-06T12:16:34;5.68;;;4.63;;
75167;SDS011;63748;48.088;11.476;2023-04-06T12:19:01;6.20;;;4.80;;
75167;SDS011;63748;48.088;11.476;2023-04-06T12:21:27;6.07;;;4.88;;
75167;SDS011;63748;48.088;11.476;2023-04-06T12:23:53;9.23;;;4.53;;
75167;SDS011;63748;48.088;11.476;2023-04-06T12:26:20;7.82;;;5.07;;
75167;SDS011;63748;48.088;11.476;2023-04-06T12:28:46;8.90;;;4.35;;
75167;SDS011;63748;48.088;11.476;2023-04-06T12:31:16;6.35;;;4.75;;
75167;SDS011;63748;48.088;11.476;2023-04-06T12:33:42;6.97;;;4.75;;
75167;SDS011;63748;48.088;11.476;2023-04-06T12:36:13;8.75;;;4.32;;
75167;SDS011;63748;48.088;11.476;2023-04-06T12:38:40;7.28;;;4.15;;
75167;SDS011;63748;48.088;11.476;2023-04-06T12:41:07;6.18;;;4.70;;
75167;SDS011;63748;48.088;11.476;2023-04-06T12:43:33;8.63;;;5.18;;
75167;SDS011;63748;48.088;11.476;2023-04-06T12:45:59;7.72;;;4.47;;
75167;SDS011;63748;48.088;11.476;2023-04-06T12:48:25;5.28;;;3.50;;
75167;SDS011;63748;48.088;11.476;2023-04-06T12:50:59;6.53;;;3.95;;
75167;SDS011;63748;48.088;11.476;2023-04-06T12:53:25;6.95;;;4.28;;
75167;SDS011;63748;48.088;11.476;2023-04-06T12:55:52;6.63;;;4.15;;
75167;SDS011;63748;48.088;11.476;2023-04-06T12:58:19;6.03;;;4.05;;
75167;SDS011;63748;48.088;11.476;2023-04-06T13:00:46;4.72;;;3.80;;
75167;SDS011;63748;48.088;11.476;2023-04-06T13:03:12;6.13;;;4.28;;
75167;SDS011;63748;48.088;11.476;2023-04-06T13:05:44;6.75;;;4.60;;
75167;SDS011;63748;48.088;11.476;2023-04-06T13:08:11;5.45;;;3.80;;
75167;SDS011;63748;48.088;11.476;2023-04-06T13:10:37;6.70;;;4.70;;
75167;SDS011;63748;48.088;11.476;2023-04-06T13:13:04;6.05;;;4.35;;
75167;SDS011;63748;48.088;11.476;2023-04-06T13:15:31;7.03;;;4.82;;
75167;SDS011;63748;48.088;11.476;2023-04-06T13:17:59;7.28;;;4.63;;
75167;SDS011;63748;48.088;11.476;2023-04-06T13:20:25;5.93;;;4.32;;
75167;SDS011;63748;48.088;11.476;2023-04-06T13:22:52;5.32;;;3.80;;
75167;SDS011;63748;48.088;11.476;2023-04-06T13:25:18;5.63;;;4.25;;
75167;SDS011;63748;48.088;11.476;2023-04-06T13:27:45;7.22;;;3.95;;
75167;SDS011;63748;48.088;11.476;2023-04-06T13:30:13;6.00;;;4.82;;
75167;SDS011;63748;48.088;11.476;2023-04-06T13:32:39;6.88;;;4.43;;
75167;SDS011;63748;48.088;11.476;2023-04-06T13:35:05;8.75;;;4.97;;
75167;SDS011;63748;48.088;11.476;2023-04-06T13:37:32;5.13;;;4.13;;
75167;SDS011;63748;48.088;11.476;2023-04-06T13:39:58;5.15;;;3.78;;
75167;SDS011;63748;48.088;11.476;2023-04-06T13:42:24;5.82;;;4.03;;
75167;SDS011;63748;48.088;11.476;2023-04-06T13:44:50;7.90;;;3.97;;
75167;SDS011;63748;48.088;11.476;2023-04-06T13:47:17;5.32;;;3.67;;
75167;SDS011;63748;48.088;11.476;2023-04-06T13:49:43;4.28;;;3.13;;
75167;SDS011;63748;48.088;11.476;2023-04-06T13:52:10;5.13;;;3.60;;
75167;SDS011;63748;48.088;11.476;2023-04-06T13:54:36;5.70;;;4.10;;
75167;SDS011;63748;48.088;11.476;2023-04-06T13:57:02;5.68;;;3.53;;
75167;SDS011;63748;48.088;11.476;2023-04-06T13:59:32;5.70;;;3.83;;
75167;SDS011;63748;48.088;11.476;2023-04-06T14:01:58;4.90;;;3.30;;
75167;SDS011;63748;48.088;11.476;2023-04-06T14:04:25;5.40;;;3.72;;
75167;SDS011;63748;48.088;11.476;2023-04-06T14:06:51;4.70;;;3.75;;
75167;SDS011;63748;48.088;11.476;2023-04-06T14:09:17;6.95;;;4.22;;
75167;SDS011;63748;48.088;11.476;2023-04-06T14:11:43;5.40;;;3.78;;
75167;SDS011;63748;48.088;11.476;2023-04-06T14:14:10;4.90;;;3.45;;
75167;SDS011;63748;48.088;11.476;2023-04-06T14:16:36;4.65;;;3.47;;
75167;SDS011;63748;48.088;11.476;2023-04-06T14:19:02;6.53;;;3.75;;
75167;SDS011;63748;48.088;11.476;2023-04-06T14:21:28;7.88;;;4.28;;
75167;SDS011;63748;48.088;11.476;2023-04-06T14:23:54;5.63;;;4.07;;
75167;SDS011;63748;48.088;11.476;2023-04-06T14:26:20;5.30;;;3.85;;
75167;SDS011;63748;48.088;11.476;2023-04-06T14:28:47;6.63;;;3.55;;
75167;SDS011;63748;48.088;11.476;2023-04-06T14:31:14;6.97;;;3.90;;
75167;SDS011;63748;48.088;11.476;2023-04-06T14:33:41;6.75;;;3.67;;
75167;SDS011;63748;48.088;11.476;2023-04-06T14:36:08;4.95;;;3.05;;
75167;SDS011;63748;48.088;11.476;2023-04-06T14:38:34;5.57;;;3.78;;